Time;durP1;ratioP1;P1;durP2;ratioP2;P2;SDS_P1;SDS_P2;PMS_P1;PMS_P2;Temp;Humidity;BMP_temperature;BMP_pressure;BME280_temperature;BME280_humidity;BME280_pressure;Samples;Min_cycle;Max_cycle;Signal;HPM_P1;HPM_P2
2022/11/19 00:00:46;;;;;;;11.20;3.30;;;10.30;99.90;;;;;;6272992;28;20529;-90
2022/11/19 00:03:48;;;;;;;9.82;2.55;;;10.30;99.90;;;;;;6273168;28;20131;-89
2022/11/19 00:06:51;;;;;;;8.20;2.60;;;10.20;99.90;;;;;;6274091;28;20064;-89
2022/11/19 00:09:56;;;;;;;8.50;2.60;;;10.20;99.90;;;;;;6272528;28;20410;-89
2022/11/19 00:12:58;;;;;;;11.10;2.50;;;10.10;99.90;;;;;;6273637;28;20049;-90
2022/11/19 00:16:04;;;;;;;8.05;2.60;;;10.00;99.90;;;;;;6274422;28;20071;-90
2022/11/19 00:19:06;;;;;;;9.57;2.63;;;9.80;99.90;;;;;;6273007;28;20531;-90
2022/11/19 00:22:08;;;;;;;5.78;2.10;;;9.80;99.90;;;;;;6272914;28;20131;-90
2022/11/19 00:25:11;;;;;;;9.73;2.47;;;9.80;99.90;;;;;;6272856;28;20049;-91
2022/11/19 00:28:13;;;;;;;7.22;2.50;;;9.70;99.90;;;;;;6273034;28;20506;-89
2022/11/19 00:31:16;;;;;;;6.50;2.85;;;9.60;99.90;;;;;;6273817;28;20049;-90
2022/11/19 00:34:17;;;;;;;13.70;3.00;;;9.60;99.90;;;;;;6273395;28;20051;-89
2022/11/19 00:37:19;;;;;;;7.53;3.22;;;9.60;99.90;;;;;;6272097;28;20055;-89
2022/11/19 00:40:23;;;;;;;6.28;3.08;;;9.60;99.90;;;;;;6272597;28;20052;-90
2022/11/19 00:46:44;;;;;;;14.50;3.03;;;9.80;99.90;;;;;;6272884;28;20425;-88
2022/11/19 00:49:46;;;;;;;8.10;2.67;;;10.00;99.90;;;;;;6272584;28;20288;-90
2022/11/19 00:52:48;;;;;;;7.20;3.15;;;10.20;99.90;;;;;;6272122;28;20576;-89
2022/11/19 00:55:51;;;;;;;11.13;3.13;;;10.30;99.90;;;;;;6272087;28;20124;-90
2022/11/19 00:58:53;;;;;;;12.10;4.13;;;10.40;99.90;;;;;;6271678;28;20057;-89
2022/11/19 01:01:55;;;;;;;10.55;3.60;;;10.40;99.90;;;;;;6271745;28;20414;-89
2022/11/19 01:04:57;;;;;;;8.05;3.42;;;10.60;99.90;;;;;;6272197;28;20044;-90
2022/11/19 01:07:59;;;;;;;13.77;4.68;;;10.70;99.90;;;;;;6271810;28;20045;-88
2022/11/19 01:11:06;;;;;;;7.30;2.95;;;10.70;99.90;;;;;;6272478;28;20136;-90
2022/11/19 01:14:08;;;;;;;11.02;3.88;;;10.70;99.90;;;;;;6272136;28;20041;-89
2022/11/19 01:17:10;;;;;;;13.32;4.03;;;10.80;99.90;;;;;;6271702;28;20053;-89
2022/11/19 01:20:12;;;;;;;9.27;3.88;;;10.90;99.90;;;;;;6256911;28;20055;-90
2022/11/19 01:23:14;;;;;;;13.07;3.75;;;10.90;99.90;;;;;;6230498;28;20100;-88
2022/11/19 01:26:18;;;;;;;15.20;3.90;;;10.90;99.90;;;;;;6246726;28;20052;-89
2022/11/19 01:29:20;;;;;;;11.52;4.50;;;10.90;99.90;;;;;;6245913;28;20045;-88
2022/11/19 01:32:21;;;;;;;10.57;3.70;;;11.00;99.90;;;;;;6247019;28;20132;-89
2022/11/19 01:35:23;;;;;;;10.07;4.15;;;11.00;99.90;;;;;;6247403;28;20107;-89
2022/11/19 01:38:25;;;;;;;9.32;3.03;;;10.90;99.90;;;;;;6246430;28;20555;-90
2022/11/19 01:41:31;;;;;;;11.35;4.43;;;10.90;99.90;;;;;;6246855;28;20056;-89
2022/11/19 01:45:00;;;;;;;8.25;4.07;;;10.80;99.90;;;;;;6247194;28;20199;-89
2022/11/19 01:48:07;;;;;;;12.35;4.20;;;10.80;99.90;;;;;;6245736;28;20495;-89
2022/11/19 01:51:12;;;;;;;11.60;4.90;;;10.80;99.90;;;;;;6247381;28;20060;-89
2022/11/19 01:54:21;;;;;;;9.27;4.25;;;10.70;99.90;;;;;;6246855;28;20179;-89
2022/11/19 01:57:24;;;;;;;16.33;5.28;;;10.70;99.90;;;;;;6246704;28;20045;-89
2022/11/19 02:00:26;;;;;;;11.13;4.00;;;10.80;99.90;;;;;;6246636;28;20046;-89
2022/11/19 02:03:31;;;;;;;10.55;4.38;;;10.70;99.90;;;;;;6247134;28;20063;-88
2022/11/19 02:06:34;;;;;;;11.43;5.25;;;10.70;99.90;;;;;;6247886;28;20063;-90
2022/11/19 02:09:36;;;;;;;13.20;6.32;;;10.70;99.90;;;;;;6249550;28;20184;-89
2022/11/19 02:12:47;;;;;;;15.10;4.43;;;10.70;99.90;;;;;;6252744;28;20045;-89
2022/11/19 02:15:52;;;;;;;17.27;4.88;;;10.70;99.90;;;;;;6254195;28;20122;-91
2022/11/19 02:18:58;;;;;;;10.63;3.67;;;10.60;99.90;;;;;;6252248;28;20075;-88
2022/11/19 02:22:12;;;;;;;9.30;3.85;;;10.60;99.90;;;;;;6253437;28;20056;-89
2022/11/19 02:25:28;;;;;;;10.43;3.45;;;10.50;99.90;;;;;;6254943;28;20144;-89
2022/11/19 02:28:36;;;;;;;13.40;3.83;;;10.50;99.90;;;;;;6254117;28;20059;-89
2022/11/19 02:31:43;;;;;;;11.38;3.85;;;10.50;99.90;;;;;;6255298;28;20131;-89
2022/11/19 02:34:49;;;;;;;12.77;3.72;;;10.50;99.90;;;;;;6270030;28;20145;-89
2022/11/19 02:38:00;;;;;;;13.23;4.03;;;10.50;99.90;;;;;;6250789;28;20045;-89
2022/11/19 02:41:32;;;;;;;9.68;2.90;;;10.50;99.90;;;;;;6251558;28;20491;-90
2022/11/19 02:47:59;;;;;;;5.97;2.83;;;10.40;99.90;;;;;;6250241;28;20049;-90
2022/11/19 02:51:03;;;;;;;8.02;4.18;;;10.40;99.90;;;;;;6251372;28;20072;-89
2022/11/19 02:54:05;;;;;;;8.13;2.97;;;10.40;99.90;;;;;;6250446;28;20503;-90
2022/11/19 02:57:08;;;;;;;9.90;4.28;;;10.40;99.90;;;;;;6250511;28;20175;-88
2022/11/19 03:06:54;;;;;;;9.13;3.65;;;10.50;99.90;;;;;;6250511;28;20050;-89
2022/11/19 03:10:00;;;;;;;14.90;3.90;;;10.50;99.90;;;;;;6249378;28;20053;-88
2022/11/19 03:16:41;;;;;;;8.50;3.42;;;10.40;99.90;;;;;;6250146;28;20041;-91
2022/11/19 03:19:50;;;;;;;10.53;4.07;;;10.50;99.90;;;;;;6248665;28;20523;-90
2022/11/19 03:22:57;;;;;;;13.55;4.05;;;10.40;99.90;;;;;;6249715;28;20728;-90
2022/11/19 03:26:04;;;;;;;15.00;3.83;;;10.40;99.90;;;;;;6250140;28;20396;-90
2022/11/19 03:29:10;;;;;;;11.13;4.63;;;10.40;99.90;;;;;;6248874;28;20136;-89
2022/11/19 03:32:16;;;;;;;10.00;4.13;;;10.30;99.90;;;;;;6249586;28;20037;-89
2022/11/19 03:35:24;;;;;;;12.07;4.55;;;10.30;99.90;;;;;;6249025;28;20162;-89
2022/11/19 03:38:29;;;;;;;10.77;4.80;;;10.40;99.90;;;;;;6248120;28;20503;-90
2022/11/19 03:41:33;;;;;;;9.65;3.95;;;10.50;99.90;;;;;;6249578;28;20072;-90
2022/11/19 03:44:39;;;;;;;13.98;4.43;;;10.50;99.90;;;;;;6249124;28;20052;-88
2022/11/19 03:47:42;;;;;;;12.15;4.28;;;10.60;99.90;;;;;;6247535;28;20182;-89
2022/11/19 03:50:50;;;;;;;11.10;4.88;;;10.50;99.90;;;;;;6248798;28;20060;-90
2022/11/19 03:53:52;;;;;;;10.68;4.80;;;10.60;99.90;;;;;;6248532;28;20069;-89
2022/11/19 03:56:55;;;;;;;13.70;4.60;;;10.70;99.90;;;;;;6248469;28;20132;-90
2022/11/19 03:59:57;;;;;;;11.70;5.38;;;10.60;99.90;;;;;;6248637;28;20120;-90
2022/11/19 04:02:59;;;;;;;15.55;5.10;;;10.60;99.90;;;;;;6249282;28;20133;-90
2022/11/19 04:06:03;;;;;;;14.75;7.10;;;10.60;99.90;;;;;;6249825;28;20069;-89
2022/11/19 04:09:05;;;;;;;16.55;5.45;;;10.60;99.90;;;;;;6251656;28;20107;-90
2022/11/19 04:12:12;;;;;;;11.15;5.47;;;10.60;99.90;;;;;;6252056;28;20115;-89
2022/11/19 04:15:15;;;;;;;11.23;5.18;;;10.60;99.90;;;;;;6251834;28;20132;-89
2022/11/19 04:18:17;;;;;;;20.20;5.55;;;10.50;99.90;;;;;;6248100;28;20051;-88
2022/11/19 04:21:20;;;;;;;17.23;7.38;;;10.40;99.90;;;;;;6248762;28;20191;-89
2022/11/19 04:24:21;;;;;;;16.52;7.15;;;10.30;99.90;;;;;;6248776;28;20076;-89
2022/11/19 04:27:23;;;;;;;14.35;5.55;;;10.30;99.90;;;;;;6247869;28;20641;-90
2022/11/19 04:30:25;;;;;;;13.70;5.70;;;10.30;99.90;;;;;;6248158;28;20128;-87
2022/11/19 04:33:27;;;;;;;11.93;5.85;;;10.30;99.90;;;;;;6249125;28;20053;-91
2022/11/19 04:36:30;;;;;;;18.75;6.00;;;10.40;99.90;;;;;;6249065;28;20136;-90
2022/11/19 04:39:32;;;;;;;13.07;5.97;;;10.30;99.90;;;;;;6247675;28;20096;-87
2022/11/19 04:42:33;;;;;;;12.10;6.68;;;10.30;99.90;;;;;;6248853;28;20415;-90
2022/11/19 04:45:35;;;;;;;16.05;7.40;;;10.30;99.90;;;;;;6248213;28;20053;-88
2022/11/19 04:48:37;;;;;;;15.05;7.00;;;10.40;99.90;;;;;;6251996;28;20064;-89
2022/11/19 04:51:40;;;;;;;14.70;6.93;;;10.40;99.90;;;;;;6248791;28;20099;-89
2022/11/19 04:54:42;;;;;;;14.15;6.05;;;10.40;99.90;;;;;;6249160;28;20132;-88
2022/11/19 04:57:44;;;;;;;15.88;6.55;;;10.40;99.90;;;;;;6247180;28;20049;-89
2022/11/19 05:00:45;;;;;;;11.95;5.22;;;10.40;99.90;;;;;;6247853;28;20137;-89
2022/11/19 05:03:47;;;;;;;14.57;6.20;;;10.40;99.90;;;;;;6247457;28;20053;-89
2022/11/19 05:06:50;;;;;;;21.73;6.88;;;10.40;99.90;;;;;;6247843;28;20137;-88
2022/11/19 05:09:52;;;;;;;18.42;6.65;;;10.40;99.90;;;;;;6246577;28;20056;-89
2022/11/19 05:12:54;;;;;;;19.35;8.30;;;10.40;99.90;;;;;;6247766;28;20051;-89
2022/11/19 05:15:56;;;;;;;16.23;6.72;;;10.40;99.90;;;;;;6247650;28;20049;-89
2022/11/19 05:18:57;;;;;;;20.63;7.95;;;10.30;99.90;;;;;;6247805;28;20057;-88
2022/11/19 05:22:00;;;;;;;20.77;7.32;;;10.40;99.90;;;;;;6247709;28;20076;-90
2022/11/19 05:25:02;;;;;;;16.08;6.75;;;10.40;99.90;;;;;;6249374;28;20048;-89
2022/11/19 05:28:05;;;;;;;18.45;7.13;;;10.40;99.90;;;;;;6248888;28;20196;-89
2022/11/19 05:31:07;;;;;;;19.20;7.63;;;10.30;99.90;;;;;;6248024;28;20056;-90
2022/11/19 05:34:08;;;;;;;22.40;6.88;;;10.40;99.90;;;;;;6246903;28;20176;-89
2022/11/19 05:37:12;;;;;;;18.95;7.38;;;10.50;99.90;;;;;;6250117;28;20144;-89
2022/11/19 05:40:14;;;;;;;19.70;6.85;;;10.50;99.90;;;;;;6261213;28;20069;-88
2022/11/19 05:43:16;;;;;;;16.17;7.13;;;10.50;99.90;;;;;;6252569;28;20119;-88
2022/11/19 05:46:18;;;;;;;23.90;7.18;;;10.50;99.90;;;;;;6250704;28;20050;-89
2022/11/19 05:49:20;;;;;;;16.83;8.27;;;10.50;99.90;;;;;;6250101;28;20037;-90
2022/11/19 05:52:23;;;;;;;19.35;7.65;;;10.50;99.90;;;;;;6250472;28;20690;-89
2022/11/19 05:55:25;;;;;;;18.33;7.45;;;10.60;99.90;;;;;;6250500;28;20140;-89
2022/11/19 05:58:27;;;;;;;17.70;7.82;;;10.70;99.90;;;;;;6245993;28;20051;-90
2022/11/19 06:01:30;;;;;;;15.50;7.03;;;10.70;99.90;;;;;;6251291;28;20057;-87
2022/11/19 06:04:32;;;;;;;15.20;6.35;;;10.70;99.90;;;;;;6257611;28;20132;-89
2022/11/19 06:07:36;;;;;;;21.85;8.23;;;10.80;99.90;;;;;;6247933;28;20036;-87
2022/11/19 06:10:38;;;;;;;18.30;7.40;;;10.70;99.90;;;;;;6248884;28;20053;-87
2022/11/19 06:13:40;;;;;;;18.98;6.63;;;10.70;99.90;;;;;;6248917;28;20052;-88
2022/11/19 06:16:42;;;;;;;22.05;7.15;;;10.80;99.90;;;;;;6248119;28;20045;-88
2022/11/19 06:19:44;;;;;;;18.30;7.75;;;10.80;99.90;;;;;;6248328;28;20049;-88
2022/11/19 06:22:48;;;;;;;19.35;7.55;;;10.70;99.90;;;;;;6248903;28;20450;-87
2022/11/19 06:25:50;;;;;;;17.25;7.00;;;10.80;99.90;;;;;;6248549;28;20038;-88
2022/11/19 06:28:52;;;;;;;19.80;6.88;;;10.80;99.90;;;;;;6248024;28;20053;-88
2022/11/19 06:31:54;;;;;;;16.05;7.18;;;10.70;99.90;;;;;;6248188;28;20415;-87
2022/11/19 06:34:56;;;;;;;20.05;7.90;;;10.60;99.90;;;;;;6247710;28;20088;-87
2022/11/19 06:37:59;;;;;;;16.75;5.97;;;10.50;99.90;;;;;;6246776;28;20049;-87
2022/11/19 06:41:01;;;;;;;18.63;7.05;;;10.40;99.90;;;;;;6246610;28;20075;-87
2022/11/19 06:44:03;;;;;;;29.05;7.28;;;10.40;99.90;;;;;;6247302;28;20049;-88
2022/11/19 06:47:05;;;;;;;20.85;6.75;;;10.40;99.90;;;;;;6247123;28;20042;-88
2022/11/19 06:50:09;;;;;;;19.17;8.57;;;10.40;99.90;;;;;;6246480;28;20249;-90
2022/11/19 06:53:13;;;;;;;24.63;8.05;;;10.40;99.90;;;;;;6246074;28;20408;-88
2022/11/19 06:56:14;;;;;;;18.58;7.25;;;10.40;99.90;;;;;;6249483;28;20387;-87
2022/11/19 06:59:16;;;;;;;26.40;7.93;;;10.50;99.90;;;;;;6251032;28;20056;-87
2022/11/19 07:02:18;;;;;;;24.17;8.18;;;10.60;99.90;;;;;;6250275;28;20061;-87
2022/11/19 07:05:20;;;;;;;17.45;8.38;;;10.50;99.90;;;;;;6251038;28;20533;-88
2022/11/19 07:08:23;;;;;;;24.17;9.00;;;10.60;99.90;;;;;;6250882;28;20434;-87
2022/11/19 07:11:28;;;;;;;19.05;8.10;;;10.50;99.90;;;;;;6250633;28;20132;-87
2022/11/19 07:14:29;;;;;;;22.88;7.45;;;10.60;99.90;;;;;;6250098;28;20045;-88
2022/11/19 07:17:31;;;;;;;19.70;6.97;;;10.50;99.90;;;;;;6251106;28;20579;-88
2022/11/19 07:20:33;;;;;;;21.50;8.73;;;10.50;99.90;;;;;;6250623;28;20041;-88
2022/11/19 07:23:36;;;;;;;20.15;6.93;;;10.50;99.90;;;;;;6250147;28;20128;-87
2022/11/19 07:26:38;;;;;;;17.48;7.47;;;10.60;99.90;;;;;;6250307;28;20087;-87
2022/11/19 07:29:40;;;;;;;21.42;8.98;;;10.60;99.90;;;;;;6249454;28;20045;-87
2022/11/19 07:32:42;;;;;;;25.60;8.77;;;10.70;99.90;;;;;;6250054;28;20136;-87
2022/11/19 07:35:44;;;;;;;21.27;8.98;;;10.80;99.90;;;;;;6250602;28;20075;-88
2022/11/19 07:38:49;;;;;;;23.25;8.52;;;11.00;99.90;;;;;;6250125;28;20136;-87
2022/11/19 07:45:10;;;;;;;20.65;8.45;;;11.00;99.90;;;;;;6250323;28;20053;-87
2022/11/19 07:48:12;;;;;;;18.85;8.55;;;11.00;99.90;;;;;;6249974;28;20180;-88
2022/11/19 07:51:14;;;;;;;21.17;7.10;;;11.20;99.90;;;;;;6250381;28;20148;-87
2022/11/19 07:54:17;;;;;;;20.30;8.55;;;11.20;99.90;;;;;;6250479;28;20041;-87
2022/11/19 07:57:19;;;;;;;20.63;7.63;;;11.20;99.90;;;;;;6251360;28;20180;-86
2022/11/19 08:00:21;;;;;;;26.20;8.05;;;11.20;99.90;;;;;;6251196;28;20049;-86
2022/11/19 08:07:21;;;;;;;24.58;7.25;;;11.30;99.90;;;;;;6266498;22;20402;-85
2022/11/19 08:10:25;;;;;;;13.30;5.25;;;11.50;99.90;;;;;;6227718;28;20045;-83
2022/11/19 08:13:27;;;;;;;20.33;7.60;;;11.40;99.90;;;;;;6226884;28;20068;-85
2022/11/19 08:20:00;;;;;;;16.27;6.60;;;11.50;99.90;;;;;;6126587;29;20043;-83
2022/11/19 08:23:01;;;;;;;12.35;5.43;;;11.50;99.90;;;;;;6226226;28;20080;-84
2022/11/19 08:26:07;;;;;;;14.88;5.95;;;11.50;99.90;;;;;;6226160;28;20422;-83
2022/11/19 08:29:09;;;;;;;19.48;5.85;;;11.40;99.90;;;;;;6226065;28;20061;-84
2022/11/19 08:32:11;;;;;;;16.83;6.55;;;11.30;99.90;;;;;;6225380;28;20060;-83
2022/11/19 08:35:13;;;;;;;14.65;6.05;;;11.30;99.90;;;;;;6224983;28;20145;-85
2022/11/19 08:38:14;;;;;;;11.77;5.03;;;11.40;99.90;;;;;;6223201;28;20380;-84
2022/11/19 08:44:37;;;;;;;11.30;4.93;;;11.50;99.90;;;;;;6200072;28;20490;-84
2022/11/19 08:47:39;;;;;;;12.57;4.85;;;11.60;99.90;;;;;;6203276;28;20057;-86
2022/11/19 08:50:42;;;;;;;12.50;4.70;;;11.60;99.90;;;;;;6208037;28;20129;-87
2022/11/19 08:53:43;;;;;;;12.93;4.63;;;11.60;99.90;;;;;;6204137;28;20042;-86
2022/11/19 08:56:47;;;;;;;10.27;4.68;;;11.60;99.90;;;;;;6204289;28;20550;-85
2022/11/19 08:59:49;;;;;;;13.93;5.68;;;11.70;99.90;;;;;;6204445;28;20054;-85
2022/11/19 09:02:50;;;;;;;15.48;5.00;;;11.70;99.90;;;;;;6203201;28;20050;-85
2022/11/19 09:05:58;;;;;;;13.45;4.60;;;11.80;99.90;;;;;;6203042;28;20053;-85
2022/11/19 09:09:00;;;;;;;8.57;4.82;;;11.70;99.90;;;;;;6205768;28;20050;-85
2022/11/19 09:12:04;;;;;;;13.32;5.28;;;11.80;99.90;;;;;;6203977;28;20046;-84
2022/11/19 09:15:07;;;;;;;11.70;5.25;;;11.80;99.90;;;;;;6201336;28;20423;-84
2022/11/19 09:18:09;;;;;;;10.77;4.60;;;11.80;99.90;;;;;;6199353;28;20042;-84
2022/11/19 09:21:12;;;;;;;10.70;5.35;;;12.00;99.90;;;;;;6200887;28;20125;-85
2022/11/19 09:24:13;;;;;;;10.95;4.93;;;12.00;99.90;;;;;;6200584;28;20462;-84
2022/11/19 09:27:17;;;;;;;15.40;4.22;;;12.10;99.90;;;;;;6201644;28;20046;-85
2022/11/19 09:30:18;;;;;;;14.98;3.22;;;12.10;99.90;;;;;;6201448;28;20046;-85
2022/11/19 09:33:20;;;;;;;6.00;3.70;;;12.10;99.90;;;;;;6201058;28;20046;-85
2022/11/19 09:36:22;;;;;;;9.60;4.22;;;12.00;99.90;;;;;;6200338;28;20042;-85
2022/11/19 09:39:25;;;;;;;11.52;4.82;;;12.00;99.90;;;;;;6199725;28;20132;-87
2022/11/19 09:42:35;;;;;;;9.50;3.13;;;12.00;99.90;;;;;;6199088;28;20096;-85
2022/11/19 09:45:50;;;;;;;8.52;3.72;;;11.90;99.90;;;;;;6198788;28;20085;-85
2022/11/19 09:48:55;;;;;;;8.82;3.42;;;11.90;99.90;;;;;;6198530;28;20056;-84
2022/11/19 09:52:03;;;;;;;9.18;3.40;;;11.90;99.90;;;;;;6198523;28;20061;-84
2022/11/19 09:55:06;;;;;;;13.27;4.20;;;12.00;99.90;;;;;;6198211;28;20104;-84
2022/11/19 09:58:15;;;;;;;6.60;3.33;;;11.90;99.90;;;;;;6197601;28;20064;-84
2022/11/19 10:01:19;;;;;;;10.02;1.15;;;11.90;99.90;;;;;;6198773;28;20056;-85
2022/11/19 10:04:22;;;;;;;7.35;3.25;;;11.80;99.90;;;;;;6198016;28;20046;-84
2022/11/19 10:07:34;;;;;;;6.43;2.90;;;11.80;99.90;;;;;;6198623;28;20047;-84
2022/11/19 10:10:41;;;;;;;12.45;3.92;;;11.80;99.90;;;;;;6222745;28;20062;-84
2022/11/19 10:13:59;;;;;;;12.20;2.90;;;11.80;99.90;;;;;;6221787;28;20614;-84
2022/11/19 10:17:14;;;;;;;11.05;3.35;;;11.80;99.90;;;;;;6223043;28;20050;-84
2022/11/19 10:20:32;;;;;;;8.15;3.30;;;11.80;99.90;;;;;;6222352;28;20046;-86
2022/11/19 10:23:45;;;;;;;8.50;3.00;;;11.70;99.90;;;;;;6222362;28;20506;-86
2022/11/19 10:26:55;;;;;;;6.53;2.10;;;11.80;99.90;;;;;;6223120;28;20156;-86
2022/11/19 10:30:02;;;;;;;3.83;2.17;;;11.80;99.90;;;;;;6222912;28;20053;-85
2022/11/19 10:33:13;;;;;;;8.10;2.90;;;11.90;99.90;;;;;;6226882;28;20065;-86
2022/11/19 10:36:21;;;;;;;4.15;2.25;;;11.90;99.90;;;;;;6226461;28;20809;-85
2022/11/19 10:39:28;;;;;;;6.32;2.75;;;11.90;99.90;;;;;;6227400;28;20053;-85
2022/11/19 10:42:34;;;;;;;8.82;2.95;;;11.80;99.90;;;;;;6227546;28;20056;-84
2022/11/19 10:45:37;;;;;;;5.93;2.38;;;11.70;99.90;;;;;;6228421;28;20045;-84
2022/11/19 10:48:43;;;;;;;11.10;2.40;;;11.70;99.90;;;;;;6226475;28;20042;-83
2022/11/19 10:51:44;;;;;;;8.25;2.20;;;11.70;99.90;;;;;;6227598;28;20488;-84
2022/11/19 10:54:47;;;;;;;2.42;1.55;;;11.60;99.90;;;;;;6226558;28;20053;-83
2022/11/19 10:57:52;;;;;;;8.63;2.15;;;11.70;99.90;;;;;;6226827;28;20050;-83
2022/11/19 11:00:56;;;;;;;8.93;3.45;;;11.60;99.90;;;;;;6227668;28;20050;-84
2022/11/19 11:04:05;;;;;;;6.80;2.45;;;11.70;99.90;;;;;;6226363;28;20109;-83
2022/11/19 11:07:07;;;;;;;6.45;2.03;;;11.60;99.90;;;;;;6220027;28;20419;-83
2022/11/19 11:10:28;;;;;;;4.35;3.03;;;11.50;99.90;;;;;;6226322;28;20057;-84
2022/11/19 11:16:58;;;;;;;9.00;2.40;;;11.50;99.90;;;;;;6226754;28;20045;-84
2022/11/19 11:20:03;;;;;;;17.88;3.83;;;11.50;99.90;;;;;;6225787;28;20053;-84
2022/11/19 11:23:09;;;;;;;9.00;5.25;;;11.50;99.90;;;;;;6227032;28;20089;-83
2022/11/19 11:26:17;;;;;;;5.35;3.88;;;11.60;99.90;;;;;;6226783;28;20045;-84
2022/11/19 11:29:26;;;;;;;7.07;3.28;;;11.80;99.90;;;;;;6227512;28;20049;-83
2022/11/19 11:32:31;;;;;;;5.53;2.95;;;11.90;99.90;;;;;;6229673;28;20530;-83
2022/11/19 11:35:36;;;;;;;10.93;3.53;;;12.00;99.90;;;;;;6228444;28;20125;-84
2022/11/19 11:38:44;;;;;;;6.38;2.40;;;12.10;99.90;;;;;;6228252;28;20461;-83
2022/11/19 11:41:49;;;;;;;6.78;2.63;;;12.10;99.90;;;;;;6227351;28;20046;-85
2022/11/19 11:44:53;;;;;;;6.50;2.55;;;12.10;99.90;;;;;;6227749;28;20041;-84
2022/11/19 11:47:58;;;;;;;5.28;2.70;;;12.30;99.90;;;;;;6227388;28;20052;-85
2022/11/19 11:51:00;;;;;;;8.55;3.17;;;12.20;99.90;;;;;;6228358;28;20160;-85
2022/11/19 11:54:07;;;;;;;6.50;2.92;;;12.20;99.90;;;;;;6227330;28;20391;-83
2022/11/19 11:57:16;;;;;;;7.27;2.97;;;12.10;99.90;;;;;;6226963;28;20164;-84
2022/11/19 12:00:35;;;;;;;7.97;3.08;;;12.00;99.90;;;;;;6227133;28;20422;-84
2022/11/19 12:03:52;;;;;;;9.90;4.85;;;12.00;99.90;;;;;;6226957;28;20053;-83
2022/11/19 12:07:07;;;;;;;9.40;2.67;;;12.00;99.90;;;;;;6226219;28;20054;-83
2022/11/19 12:10:20;;;;;;;5.68;2.92;;;12.00;99.90;;;;;;6226141;28;20054;-83
2022/11/19 12:13:47;;;;;;;7.18;3.35;;;12.10;99.90;;;;;;6225821;28;20046;-84
2022/11/19 12:17:18;;;;;;;6.82;3.63;;;12.10;99.90;;;;;;6227180;28;20393;-84
2022/11/19 12:20:32;;;;;;;7.57;3.35;;;12.00;99.90;;;;;;6213064;28;20050;-83
2022/11/19 12:23:52;;;;;;;8.95;3.03;;;12.10;99.90;;;;;;6226262;28;20046;-84
2022/11/19 12:27:00;;;;;;;6.72;2.30;;;12.10;99.90;;;;;;6226067;28;20054;-83
2022/11/19 12:30:06;;;;;;;10.15;3.38;;;12.20;99.90;;;;;;6225264;28;20046;-83
2022/11/19 12:33:26;;;;;;;24.33;8.07;;;12.20;99.90;;;;;;6226359;28;20069;-84
2022/11/19 12:36:38;;;;;;;14.32;7.38;;;12.30;99.90;;;;;;6221100;28;20061;-83
2022/11/19 12:39:46;;;;;;;21.83;13.07;;;12.50;99.90;;;;;;6226721;28;20053;-84
2022/11/19 12:42:52;;;;;;;;;;;12.60;99.90;;;;;;6229146;28;20057;-84
2022/11/19 12:46:01;;;;;;;14.68;6.90;;;12.60;99.90;;;;;;6225828;28;19925;-84
2022/11/19 12:49:22;;;;;;;24.73;11.70;;;12.60;99.90;;;;;;6225818;28;20046;-84
2022/11/19 12:52:43;;;;;;;21.70;9.52;;;12.60;99.90;;;;;;6226820;28;20050;-85
2022/11/19 12:55:54;;;;;;;14.23;6.28;;;12.70;99.90;;;;;;6225278;28;20527;-84
2022/11/19 12:59:06;;;;;;;11.95;2.85;;;12.70;99.90;;;;;;6222975;28;20052;-84
2022/11/19 13:02:19;;;;;;;8.30;2.75;;;12.70;99.90;;;;;;6226723;28;20050;-84
2022/11/19 13:05:27;;;;;;;15.45;6.50;;;12.70;99.90;;;;;;6226049;28;20495;-83
2022/11/19 13:08:37;;;;;;;9.82;5.10;;;12.80;99.90;;;;;;6226240;28;20064;-84
2022/11/19 13:11:42;;;;;;;21.17;8.68;;;12.80;99.90;;;;;;6227613;28;20050;-83
2022/11/19 13:14:47;;;;;;;14.43;8.88;;;12.70;99.90;;;;;;6227359;28;20049;-84
2022/11/19 13:17:52;;;;;;;5.10;2.85;;;12.70;99.90;;;;;;6225690;28;20408;-85
2022/11/19 13:20:59;;;;;;;10.40;3.38;;;12.60;99.90;;;;;;6227527;28;20050;-84
2022/11/19 13:24:10;;;;;;;10.13;3.10;;;12.60;99.90;;;;;;6227592;28;20045;-85
2022/11/19 13:27:15;;;;;;;6.90;2.92;;;12.60;99.90;;;;;;6227454;28;20058;-84
2022/11/19 13:30:19;;;;;;;7.53;3.10;;;12.60;99.90;;;;;;6224197;28;20041;-84
2022/11/19 13:33:25;;;;;;;6.47;2.17;;;12.50;99.90;;;;;;6222494;28;20050;-82
2022/11/19 13:36:33;;;;;;;6.32;2.63;;;12.50;99.90;;;;;;6223460;28;20095;-83
2022/11/19 13:39:42;;;;;;;8.02;3.40;;;12.40;99.90;;;;;;6224605;28;20045;-83
2022/11/19 13:46:16;;;;;;;8.57;2.80;;;12.40;99.90;;;;;;6224306;28;20046;-84
2022/11/19 13:49:21;;;;;;;6.50;2.45;;;12.50;99.90;;;;;;6224045;28;20041;-84
2022/11/19 13:52:28;;;;;;;14.75;8.85;;;12.50;99.90;;;;;;6224093;28;20050;-83
2022/11/19 13:55:35;;;;;;;9.05;4.72;;;12.40;99.90;;;;;;6223876;28;20064;-83
2022/11/19 13:58:38;;;;;;;5.72;3.00;;;12.50;99.90;;;;;;6221898;28;20111;-82
2022/11/19 14:01:59;;;;;;;6.72;2.80;;;12.60;99.90;;;;;;6223651;28;20049;-84
2022/11/19 14:05:20;;;;;;;7.90;4.45;;;12.70;99.90;;;;;;6225884;28;20057;-85
2022/11/19 14:12:03;;;;;;;9.40;4.97;;;12.70;99.90;;;;;;6204309;28;20046;-87
2022/11/19 14:26:46;;;;;;;10.45;6.80;;;11.70;99.90;;;;;;6154273;29;20047;-87
2022/11/19 14:30:43;;;;;;;14.45;7.65;;;11.60;99.90;;;;;;6153232;29;20513;-86
2022/11/19 14:37:28;;;;;;;14.35;8.27;;;11.10;99.90;;;;;;6153251;28;20133;-86
2022/11/19 14:40:31;;;;;;;;;;;11.00;99.90;;;;;;6184704;28;20046;-87
2022/11/19 14:51:35;;;;;;;8.90;5.15;;;10.70;99.90;;;;;;6098930;29;20056;-87
2022/11/19 14:54:52;;;;;;;11.20;5.40;;;10.50;99.90;;;;;;6125411;28;20043;-87
2022/11/19 14:58:04;;;;;;;10.20;4.97;;;10.50;99.90;;;;;;6182445;28;20081;-88
2022/11/19 15:01:10;;;;;;;10.45;4.28;;;10.10;99.90;;;;;;6183705;28;20543;-88
2022/11/19 15:04:15;;;;;;;7.45;4.72;;;9.90;99.90;;;;;;6185236;28;20520;-87
2022/11/19 15:07:42;;;;;;;8.98;5.05;;;9.90;99.90;;;;;;6183748;28;20061;-87
2022/11/19 15:10:49;;;;;;;8.95;5.53;;;9.90;99.90;;;;;;6183179;28;20125;-88
2022/11/19 15:15:03;;;;;;;12.07;6.47;;;9.90;99.90;;;;;;6180990;28;20051;-88
2022/11/19 15:18:13;;;;;;;8.73;6.28;;;9.90;99.90;;;;;;6180971;28;20039;-88
2022/11/19 15:21:43;;;;;;;8.57;4.72;;;9.80;99.90;;;;;;6181612;28;20125;-88
2022/11/19 15:25:03;;;;;;;8.15;5.13;;;9.80;99.90;;;;;;6183305;28;20508;-88
2022/11/19 15:28:21;;;;;;;10.60;5.93;;;9.60;99.90;;;;;;6185250;28;20054;-88
2022/11/19 15:31:41;;;;;;;10.48;5.43;;;9.40;99.90;;;;;;6184084;28;20065;-87
2022/11/19 15:34:59;;;;;;;11.82;6.28;;;9.40;99.90;;;;;;6183787;28;20198;-87
2022/11/19 15:38:07;;;;;;;;;;;9.40;99.90;;;;;;6175405;28;20102;-88
2022/11/19 15:41:22;;;;;;;12.32;8.07;;;9.50;99.90;;;;;;6185987;28;19922;-88
2022/11/19 15:44:28;;;;;;;15.13;7.25;;;9.40;99.90;;;;;;6186252;28;20058;-88
2022/11/19 15:55:25;;;;;;;16.13;9.18;;;9.50;99.90;;;;;;6030360;29;20076;-87
2022/11/19 15:58:32;;;;;;;18.38;12.18;;;9.40;99.90;;;;;;6137544;28;20057;-89
2022/11/19 16:01:52;;;;;;;17.58;9.02;;;9.40;99.90;;;;;;6175743;28;20174;-89
2022/11/19 16:04:56;;;;;;;12.18;6.68;;;9.50;99.90;;;;;;6180926;28;20049;-87
2022/11/19 16:08:03;;;;;;;14.48;7.32;;;9.50;99.90;;;;;;6177692;28;20042;-87
2022/11/19 16:18:01;;;;;;;12.70;6.72;;;9.30;99.90;;;;;;6175066;28;20039;-86
2022/11/19 16:21:06;;;;;;;16.70;7.50;;;9.30;99.90;;;;;;6175970;28;20050;-86
2022/11/19 16:27:41;;;;;;;12.52;6.90;;;9.10;99.90;;;;;;6174978;28;20050;-86
2022/11/19 16:30:50;;;;;;;14.77;7.57;;;8.80;99.90;;;;;;6178624;28;20054;-87
2022/11/19 16:33:54;;;;;;;17.08;8.48;;;8.70;99.90;;;;;;6177154;28;20046;-88
2022/11/19 16:36:56;;;;;;;13.60;7.93;;;8.60;99.90;;;;;;6174922;28;20178;-88
2022/11/19 16:39:58;;;;;;;20.45;10.57;;;8.50;99.90;;;;;;6174788;28;20500;-88
2022/11/19 16:43:01;;;;;;;12.88;7.38;;;8.50;99.90;;;;;;6175362;28;20051;-88
2022/11/19 16:46:05;;;;;;;16.15;7.70;;;8.50;99.90;;;;;;6175253;28;20129;-87
2022/11/19 16:49:15;;;;;;;12.73;6.95;;;8.50;99.90;;;;;;6174567;28;20059;-88
2022/11/19 16:52:36;;;;;;;11.80;6.22;;;8.60;99.90;;;;;;6174830;28;20544;-87
2022/11/19 16:55:42;;;;;;;17.33;7.97;;;8.70;99.90;;;;;;6174898;28;20056;-88
2022/11/19 16:58:46;;;;;;;12.88;6.82;;;8.70;99.90;;;;;;6175019;28;20096;-87
2022/11/19 17:01:55;;;;;;;14.20;6.68;;;8.70;99.90;;;;;;6174060;28;20459;-88
2022/11/19 17:05:04;;;;;;;10.48;6.10;;;8.70;99.90;;;;;;6174134;28;20050;-88
2022/11/19 17:08:19;;;;;;;12.50;6.13;;;8.60;99.90;;;;;;6173874;28;20050;-88
2022/11/19 17:15:18;;;;;;;12.73;5.07;;;8.60;99.90;;;;;;6175382;28;20034;-88
2022/11/19 17:18:26;;;;;;;15.00;7.38;;;8.70;99.90;;;;;;6161384;28;20046;-87
2022/11/19 17:21:37;;;;;;;17.50;8.38;;;8.80;99.90;;;;;;6173761;28;20055;-87
2022/11/19 17:24:47;;;;;;;19.13;10.10;;;8.90;99.90;;;;;;6163007;28;20047;-88
2022/11/19 17:28:22;;;;;;;19.45;10.65;;;8.90;99.90;;;;;;6175809;28;20050;-88
2022/11/19 17:31:52;;;;;;;16.17;8.68;;;9.00;99.90;;;;;;6171408;28;20054;-87